Time;durP1;ratioP1;P1;durP2;ratioP2;P2;SDS_P1;SDS_P2;PMS_P1;PMS_P2;Temp;Humidity;BMP_temperature;BMP_pressure;BME280_temperature;BME280_humidity;BME280_pressure;Samples;Min_cycle;Max_cycle;Signal;HPM_P1;HPM_P2
2023/01/09 00:00:46;;;;;;;19.70;14.77;;;8.00;1.00;;;;;;5062316;28;20210;-54
2023/01/09 00:03:12;;;;;;;17.00;14.77;;;8.00;1.00;;;;;;5061404;28;20272;-54
2023/01/09 00:05:38;;;;;;;18.70;15.10;;;8.10;1.00;;;;;;5061565;28;20573;-54
2023/01/09 00:08:04;;;;;;;16.50;13.77;;;8.10;1.00;;;;;;5057463;28;20185;-54
2023/01/09 00:10:29;;;;;;;17.60;13.43;;;8.10;1.00;;;;;;5056034;28;20197;-53
2023/01/09 00:12:55;;;;;;;17.67;14.80;;;8.10;1.00;;;;;;5063112;28;20178;-54
2023/01/09 00:15:21;;;;;;;19.43;15.33;;;8.20;1.00;;;;;;5057444;28;20188;-54
2023/01/09 00:17:48;;;;;;;20.40;15.83;;;8.10;1.00;;;;;;5060395;28;20203;-54
2023/01/09 00:20:15;;;;;;;15.40;13.63;;;8.10;1.00;;;;;;5054902;28;20301;-53
2023/01/09 00:22:41;;;;;;;18.30;13.73;;;8.20;1.00;;;;;;5062034;28;20956;-53
2023/01/09 00:25:06;;;;;;;20.70;15.57;;;8.20;1.00;;;;;;5064954;28;20451;-53
2023/01/09 00:27:33;;;;;;;19.90;14.97;;;8.20;1.00;;;;;;5062592;28;20527;-53
2023/01/09 00:29:59;;;;;;;20.10;14.63;;;8.20;1.00;;;;;;5062119;28;20455;-54
2023/01/09 00:32:25;;;;;;;18.77;13.90;;;8.20;1.00;;;;;;5062817;28;20458;-54
2023/01/09 00:34:52;;;;;;;22.37;15.60;;;8.20;1.00;;;;;;5050228;28;20939;-54
2023/01/09 00:37:17;;;;;;;21.40;15.27;;;8.10;1.00;;;;;;5061592;28;20451;-54
2023/01/09 00:39:43;;;;;;;20.00;15.60;;;8.10;1.00;;;;;;5062224;28;21050;-56
2023/01/09 00:42:12;;;;;;;18.60;14.87;;;8.10;1.00;;;;;;5062194;28;20199;-53
2023/01/09 00:44:42;;;;;;;20.50;15.47;;;8.10;1.00;;;;;;5052452;28;20189;-54
2023/01/09 00:47:16;;;;;;;22.43;16.20;;;8.00;1.00;;;;;;5052168;28;20449;-53
2023/01/09 00:49:42;;;;;;;21.20;14.60;;;8.00;1.00;;;;;;5055452;28;20499;-54
2023/01/09 00:52:10;;;;;;;21.00;15.27;;;8.00;1.00;;;;;;5059690;28;20528;-53
2023/01/09 00:54:37;;;;;;;21.47;15.57;;;7.90;1.00;;;;;;5050765;28;20502;-54
2023/01/09 00:57:03;;;;;;;22.67;16.03;;;7.90;1.00;;;;;;5051715;28;20491;-53
2023/01/09 00:59:29;;;;;;;21.67;15.47;;;7.80;1.00;;;;;;5056986;28;20494;-54
2023/01/09 01:01:54;;;;;;;21.70;15.60;;;7.90;1.00;;;;;;5057893;28;20264;-54
2023/01/09 01:09:48;;;;;;;20.80;14.40;;;7.80;1.00;;;;;;5059478;28;20540;-53
2023/01/09 01:12:14;;;;;;;20.30;14.30;;;7.80;1.00;;;;;;5060525;28;20466;-54
2023/01/09 01:14:39;;;;;;;20.30;15.53;;;7.80;1.00;;;;;;5063292;28;20192;-54
2023/01/09 01:17:06;;;;;;;21.10;14.67;;;7.90;1.00;;;;;;5061501;28;20198;-54
2023/01/09 01:19:33;;;;;;;20.73;15.00;;;7.80;1.00;;;;;;5066874;28;20210;-53
2023/01/09 01:21:58;;;;;;;20.00;15.63;;;7.80;1.00;;;;;;5058464;28;20820;-52
2023/01/09 01:24:24;;;;;;;21.83;15.67;;;7.80;1.00;;;;;;5053336;28;20520;-53
2023/01/09 01:26:50;;;;;;;25.43;15.50;;;7.80;1.00;;;;;;5052322;28;20574;-53
2023/01/09 01:29:15;;;;;;;19.00;15.10;;;7.80;1.00;;;;;;5059241;28;20188;-54
2023/01/09 01:31:41;;;;;;;20.20;15.30;;;7.80;1.00;;;;;;5068992;28;20299;-53
2023/01/09 01:34:06;;;;;;;19.73;15.03;;;7.90;1.00;;;;;;5062037;28;20682;-53
2023/01/09 01:36:33;;;;;;;25.20;15.13;;;8.00;1.00;;;;;;5066132;28;20196;-54
2023/01/09 01:38:58;;;;;;;18.77;13.27;;;7.80;1.00;;;;;;5065501;28;20193;-53
2023/01/09 01:41:30;;;;;;;22.23;14.30;;;7.90;1.00;;;;;;5062305;28;20447;-52
2023/01/09 01:44:03;;;;;;;20.57;14.43;;;7.90;1.00;;;;;;5060435;28;20235;-53
2023/01/09 01:46:31;;;;;;;21.43;14.90;;;7.90;1.00;;;;;;5075817;28;20463;-53
2023/01/09 01:49:07;;;;;;;19.30;14.00;;;7.90;1.00;;;;;;5061193;28;20840;-52
2023/01/09 01:51:40;;;;;;;20.07;13.97;;;8.00;1.00;;;;;;5069008;28;20443;-52
2023/01/09 01:54:10;;;;;;;20.77;14.00;;;7.90;1.00;;;;;;5053260;28;20459;-54
2023/01/09 01:56:40;;;;;;;17.77;13.23;;;8.00;1.00;;;;;;5057984;28;21033;-55
2023/01/09 01:59:36;;;;;;;20.50;14.33;;;8.00;1.00;;;;;;5067934;28;20456;-53
2023/01/09 02:02:02;;;;;;;17.60;13.60;;;8.00;1.00;;;;;;5064917;28;20468;-52
2023/01/09 02:04:31;;;;;;;18.77;13.60;;;7.90;1.00;;;;;;5067938;28;20454;-53
2023/01/09 02:06:59;;;;;;;19.80;12.53;;;8.00;1.00;;;;;;5060702;28;20447;-53
2023/01/09 02:09:25;;;;;;;18.00;13.07;;;8.00;1.00;;;;;;5062820;28;20430;-54
2023/01/09 02:11:55;;;;;;;18.30;13.10;;;8.00;1.00;;;;;;5065887;28;20436;-53
2023/01/09 02:14:25;;;;;;;20.07;14.17;;;8.00;1.00;;;;;;5069325;28;20472;-53
2023/01/09 02:17:21;;;;;;;17.97;13.53;;;8.00;1.00;;;;;;5057487;28;20457;-54
2023/01/09 02:20:31;;;;;;;17.97;13.60;;;8.00;1.00;;;;;;5063351;28;21033;-54
2023/01/09 02:23:14;;;;;;;18.20;13.03;;;8.10;1.00;;;;;;5054733;28;20970;-54
2023/01/09 02:25:48;;;;;;;15.40;11.53;;;8.10;1.00;;;;;;5058704;28;20447;-53
2023/01/09 02:28:50;;;;;;;16.30;13.00;;;8.00;1.00;;;;;;5063680;28;20428;-54
2023/01/09 02:31:52;;;;;;;17.53;12.90;;;8.10;1.00;;;;;;5063356;28;20443;-53
2023/01/09 02:34:35;;;;;;;18.50;12.80;;;8.10;1.00;;;;;;5036323;28;20447;-53
2023/01/09 02:37:28;;;;;;;16.93;12.70;;;8.20;1.00;;;;;;5060165;28;20461;-54
2023/01/09 02:40:28;;;;;;;18.37;13.90;;;8.20;1.00;;;;;;5046345;28;20468;-55
2023/01/09 02:42:56;;;;;;;18.17;13.23;;;8.20;1.00;;;;;;5064852;28;20458;-54
2023/01/09 02:45:21;;;;;;;20.13;14.10;;;8.20;1.00;;;;;;5064386;28;20792;-53
2023/01/09 02:47:48;;;;;;;17.00;14.03;;;8.20;1.00;;;;;;5058464;28;20493;-53
2023/01/09 02:50:22;;;;;;;15.60;13.00;;;8.20;1.00;;;;;;5059256;28;20308;-52
2023/01/09 02:53:01;;;;;;;18.83;13.53;;;8.20;1.00;;;;;;5063414;28;20422;-53
2023/01/09 02:55:45;;;;;;;16.40;12.40;;;8.20;1.00;;;;;;5057184;28;20444;-53
2023/01/09 02:58:29;;;;;;;17.43;12.83;;;8.20;1.00;;;;;;5057426;28;20466;-54
2023/01/09 03:01:13;;;;;;;19.10;14.00;;;8.30;1.00;;;;;;5062565;28;20499;-53
2023/01/09 03:04:01;;;;;;;20.07;15.10;;;8.30;1.00;;;;;;5062217;28;20836;-54
2023/01/09 03:06:36;;;;;;;20.53;14.00;;;8.30;1.00;;;;;;5053258;28;20435;-53
2023/01/09 03:09:07;;;;;;;19.23;13.20;;;8.30;1.00;;;;;;5061302;28;20446;-52
2023/01/09 03:11:39;;;;;;;16.67;13.20;;;8.30;1.00;;;;;;5060959;28;20459;-52
2023/01/09 03:14:11;;;;;;;17.13;12.27;;;8.30;1.00;;;;;;5056168;28;20486;-53
2023/01/09 03:16:38;;;;;;;20.90;14.60;;;8.20;1.00;;;;;;5085097;28;20597;-53
2023/01/09 03:19:08;;;;;;;19.40;13.13;;;8.20;1.00;;;;;;5064843;28;20935;-53
2023/01/09 03:21:34;;;;;;;19.07;14.90;;;8.20;1.00;;;;;;5059407;28;20469;-54
2023/01/09 03:24:01;;;;;;;21.93;15.10;;;8.20;1.00;;;;;;5057560;28;20483;-53
2023/01/09 03:26:30;;;;;;;21.00;14.00;;;8.20;1.00;;;;;;5056776;28;20456;-53
2023/01/09 03:28:57;;;;;;;16.73;13.53;;;8.20;1.00;;;;;;5059242;28;20525;-53
2023/01/09 03:31:23;;;;;;;16.53;13.30;;;8.20;1.00;;;;;;5050415;28;20420;-53
2023/01/09 03:33:49;;;;;;;20.20;14.90;;;8.10;1.00;;;;;;5061862;28;20535;-53
2023/01/09 03:36:16;;;;;;;20.93;14.93;;;8.10;1.00;;;;;;5061020;28;20604;-53
2023/01/09 03:38:42;;;;;;;21.60;14.67;;;8.10;1.00;;;;;;5054182;28;20546;-54
2023/01/09 03:41:08;;;;;;;18.43;13.73;;;8.10;1.00;;;;;;5061640;28;20468;-53
2023/01/09 03:43:34;;;;;;;21.53;15.43;;;8.10;1.00;;;;;;5060222;28;20561;-54
2023/01/09 03:46:00;;;;;;;19.43;15.10;;;8.10;1.00;;;;;;5054231;28;20448;-53
2023/01/09 03:48:26;;;;;;;20.80;14.47;;;8.10;1.00;;;;;;5058481;28;20479;-53
2023/01/09 03:50:53;;;;;;;20.40;14.27;;;8.00;1.00;;;;;;5062755;28;20452;-53
2023/01/09 03:53:20;;;;;;;18.47;13.67;;;8.00;1.00;;;;;;5066938;28;20436;-53
2023/01/09 03:55:48;;;;;;;18.50;14.47;;;8.00;1.00;;;;;;5059877;28;20456;-54
2023/01/09 03:58:15;;;;;;;19.97;12.77;;;8.00;1.00;;;;;;5053554;28;21009;-54
2023/01/09 04:00:41;;;;;;;20.33;14.53;;;8.10;1.00;;;;;;5056986;28;20880;-52
2023/01/09 04:03:08;;;;;;;20.43;13.57;;;8.10;1.00;;;;;;5059005;28;20507;-52
2023/01/09 04:05:34;;;;;;;19.80;13.57;;;8.10;1.00;;;;;;5059944;28;20465;-53
2023/01/09 04:08:00;;;;;;;18.00;12.80;;;8.10;1.00;;;;;;5064926;28;20450;-53
2023/01/09 04:10:26;;;;;;;19.13;13.60;;;8.00;1.00;;;;;;5053836;28;20399;-54
2023/01/09 04:12:52;;;;;;;16.07;12.70;;;8.10;1.00;;;;;;5053725;28;20430;-54
2023/01/09 04:15:17;;;;;;;17.10;13.47;;;8.10;1.00;;;;;;5059117;28;20193;-53
2023/01/09 04:17:43;;;;;;;18.20;13.00;;;8.20;1.00;;;;;;5062440;28;20192;-53
2023/01/09 04:20:09;;;;;;;16.67;12.97;;;8.20;1.00;;;;;;5056816;28;20304;-53
2023/01/09 04:22:35;;;;;;;20.50;14.27;;;8.10;1.00;;;;;;5059335;28;20236;-53
2023/01/09 04:25:01;;;;;;;17.27;13.97;;;8.10;1.00;;;;;;5057362;28;20451;-53
2023/01/09 04:27:26;;;;;;;18.00;13.10;;;8.20;1.00;;;;;;5064654;28;20414;-53
2023/01/09 04:29:52;;;;;;;15.40;12.63;;;8.30;1.00;;;;;;5059394;28;20193;-54
2023/01/09 04:32:18;;;;;;;17.83;13.47;;;8.20;1.00;;;;;;5052497;28;20189;-53
2023/01/09 04:34:43;;;;;;;16.93;12.90;;;8.20;1.00;;;;;;5050321;28;20198;-53
2023/01/09 04:37:09;;;;;;;16.43;13.13;;;8.20;1.00;;;;;;5055679;28;20202;-54
2023/01/09 04:39:36;;;;;;;19.80;13.20;;;8.20;1.00;;;;;;5065271;28;20217;-53
2023/01/09 04:42:02;;;;;;;16.30;12.13;;;8.20;1.00;;;;;;5059692;28;20315;-53
2023/01/09 04:44:28;;;;;;;18.27;13.60;;;8.20;1.00;;;;;;5062487;28;20453;-53
2023/01/09 04:46:56;;;;;;;18.70;12.57;;;8.10;1.00;;;;;;5057262;28;20447;-59
2023/01/09 04:49:22;;;;;;;17.20;13.00;;;8.10;1.00;;;;;;5053425;28;20496;-55
2023/01/09 04:51:47;;;;;;;15.60;11.93;;;8.10;1.00;;;;;;5063073;28;20485;-53
2023/01/09 04:54:13;;;;;;;15.90;12.17;;;8.10;1.00;;;;;;5055102;28;20456;-54
2023/01/09 04:56:39;;;;;;;17.03;12.43;;;8.10;1.00;;;;;;5053915;28;20197;-55
2023/01/09 04:59:06;;;;;;;14.80;12.27;;;8.10;1.00;;;;;;5058594;28;20549;-53
2023/01/09 05:01:32;;;;;;;14.73;11.57;;;8.00;1.00;;;;;;5058744;28;20188;-55
2023/01/09 05:03:58;;;;;;;18.70;13.30;;;8.10;1.00;;;;;;5061588;28;20536;-53
2023/01/09 05:06:23;;;;;;;16.20;12.47;;;8.20;1.00;;;;;;5059700;28;20467;-55
2023/01/09 05:08:49;;;;;;;17.50;12.03;;;8.20;1.00;;;;;;5061267;28;20252;-54
2023/01/09 05:11:15;;;;;;;16.60;12.13;;;8.20;1.00;;;;;;5060597;28;20197;-52
2023/01/09 05:13:40;;;;;;;16.00;11.70;;;8.20;1.00;;;;;;5058320;28;20254;-53
2023/01/09 05:16:07;;;;;;;14.13;11.40;;;8.20;1.00;;;;;;5056427;28;20195;-53
2023/01/09 05:18:32;;;;;;;16.67;12.50;;;8.20;1.00;;;;;;5059254;28;20198;-52
2023/01/09 05:20:58;;;;;;;16.53;12.90;;;8.30;1.00;;;;;;5055406;28;21155;-55
2023/01/09 05:23:23;;;;;;;14.67;12.40;;;8.20;1.00;;;;;;5058067;28;20189;-53
2023/01/09 05:25:49;;;;;;;16.17;12.87;;;8.30;1.00;;;;;;5057100;28;20172;-54
2023/01/09 05:28:15;;;;;;;14.50;11.13;;;8.20;1.00;;;;;;5057703;28;20250;-53
2023/01/09 05:30:40;;;;;;;17.10;12.73;;;8.20;1.00;;;;;;5057708;28;20224;-53
2023/01/09 05:33:06;;;;;;;15.50;12.03;;;8.30;1.00;;;;;;5062697;28;20251;-53
2023/01/09 05:35:32;;;;;;;14.20;11.63;;;8.30;1.00;;;;;;5059062;28;20258;-54
2023/01/09 05:37:58;;;;;;;15.80;12.60;;;8.20;1.00;;;;;;5054090;28;20544;-54
2023/01/09 05:40:23;;;;;;;15.87;11.50;;;8.20;1.00;;;;;;5053106;28;20206;-53
2023/01/09 05:42:49;;;;;;;16.17;12.43;;;8.20;1.00;;;;;;5065282;28;20661;-54
2023/01/09 05:45:15;;;;;;;17.47;11.77;;;8.20;1.00;;;;;;5066403;28;20281;-52
2023/01/09 05:47:42;;;;;;;15.80;12.00;;;8.10;1.00;;;;;;5055614;28;20181;-54
2023/01/09 05:50:08;;;;;;;17.67;13.47;;;8.00;1.00;;;;;;5054515;28;20304;-54
2023/01/09 05:52:34;;;;;;;18.87;12.00;;;7.90;1.00;;;;;;5071064;28;20448;-53
2023/01/09 05:54:59;;;;;;;16.17;10.93;;;7.80;1.00;;;;;;5067506;28;20776;-52
2023/01/09 05:57:26;;;;;;;16.80;11.97;;;7.90;1.00;;;;;;5070700;28;20184;-54
2023/01/09 05:59:51;;;;;;;18.17;12.87;;;7.80;1.00;;;;;;5060703;28;20197;-53
2023/01/09 06:02:17;;;;;;;15.47;11.87;;;7.70;1.00;;;;;;5063508;28;20439;-53
2023/01/09 06:04:42;;;;;;;15.10;10.90;;;7.70;1.00;;;;;;5059860;28;20186;-54
2023/01/09 06:07:08;;;;;;;16.67;13.10;;;7.70;1.00;;;;;;5060993;28;20201;-54
2023/01/09 06:09:34;;;;;;;15.73;11.90;;;7.80;1.00;;;;;;5055092;28;20247;-53
2023/01/09 06:11:59;;;;;;;16.53;12.20;;;7.70;1.00;;;;;;5068512;28;20492;-54
2023/01/09 06:14:25;;;;;;;18.10;13.57;;;7.80;1.00;;;;;;5067766;28;20197;-54
2023/01/09 06:16:51;;;;;;;18.40;12.73;;;7.90;1.00;;;;;;5067544;28;20188;-55
2023/01/09 06:19:16;;;;;;;18.73;12.60;;;7.80;1.00;;;;;;5063096;28;20203;-53
2023/01/09 06:21:42;;;;;;;19.07;12.83;;;7.80;1.00;;;;;;5068465;28;20183;-55
2023/01/09 06:24:08;;;;;;;17.13;13.40;;;7.80;1.00;;;;;;5058524;28;20662;-54
2023/01/09 06:26:33;;;;;;;15.40;12.03;;;7.80;1.00;;;;;;5064280;28;20826;-54
2023/01/09 06:29:00;;;;;;;17.97;12.90;;;7.90;1.00;;;;;;5063569;28;20187;-53
2023/01/09 06:31:26;;;;;;;16.37;12.57;;;7.90;1.00;;;;;;5062347;28;20631;-55
2023/01/09 06:33:52;;;;;;;16.83;11.80;;;7.90;1.00;;;;;;5062382;28;20454;-53
2023/01/09 06:36:18;;;;;;;16.67;12.90;;;8.00;1.00;;;;;;5059971;28;20190;-55
2023/01/09 06:38:43;;;;;;;17.23;12.63;;;8.00;1.00;;;;;;5057170;28;20418;-54
2023/01/09 06:41:09;;;;;;;17.33;12.17;;;8.00;1.00;;;;;;5064973;28;20217;-53
2023/01/09 06:43:35;;;;;;;16.70;10.83;;;8.00;1.00;;;;;;5062790;28;20190;-52
2023/01/09 06:46:00;;;;;;;15.03;10.93;;;8.10;1.00;;;;;;5057563;28;20182;-54
2023/01/09 06:48:26;;;;;;;16.30;11.60;;;8.10;1.00;;;;;;5056845;28;20459;-54
2023/01/09 06:50:52;;;;;;;15.60;11.03;;;8.10;1.00;;;;;;5066041;28;20181;-54
2023/01/09 06:53:19;;;;;;;14.43;10.80;;;8.10;1.00;;;;;;5057012;28;20210;-55
2023/01/09 06:55:45;;;;;;;16.70;12.57;;;8.10;1.00;;;;;;5053336;28;20787;-55
2023/01/09 06:58:11;;;;;;;17.00;11.43;;;8.20;1.00;;;;;;5056655;28;20194;-55
2023/01/09 07:00:37;;;;;;;18.37;13.17;;;8.20;1.00;;;;;;5066314;28;20518;-54
2023/01/09 07:03:04;;;;;;;14.60;10.70;;;8.20;1.00;;;;;;5061301;28;20423;-53
2023/01/09 07:05:32;;;;;;;15.63;11.60;;;8.30;1.00;;;;;;5060163;28;20642;-53
2023/01/09 07:07:58;;;;;;;18.23;12.50;;;8.20;1.00;;;;;;5058763;28;20849;-54
2023/01/09 07:10:24;;;;;;;14.57;11.67;;;8.30;1.00;;;;;;5059005;28;20448;-54
2023/01/09 07:12:49;;;;;;;15.60;11.60;;;8.30;1.00;;;;;;5063832;28;20200;-54
2023/01/09 07:15:15;;;;;;;15.97;12.43;;;8.30;1.00;;;;;;5060358;28;20181;-53
2023/01/09 07:17:40;;;;;;;16.90;11.80;;;8.20;1.00;;;;;;5060382;28;20251;-53
2023/01/09 07:20:07;;;;;;;13.80;11.70;;;8.20;1.00;;;;;;5059474;28;20202;-53
2023/01/09 07:22:33;;;;;;;16.20;11.90;;;8.20;1.00;;;;;;5057755;28;20592;-55
2023/01/09 07:24:58;;;;;;;20.53;13.53;;;8.20;1.00;;;;;;5054534;28;20480;-53
2023/01/09 07:27:24;;;;;;;18.17;12.07;;;8.30;1.00;;;;;;5062033;28;20631;-53
2023/01/09 07:29:52;;;;;;;15.57;12.23;;;8.30;1.00;;;;;;5068947;28;20212;-54
2023/01/09 07:32:18;;;;;;;15.03;12.27;;;8.30;1.00;;;;;;5060950;28;20205;-53
2023/01/09 07:34:43;;;;;;;14.83;11.97;;;8.30;1.00;;;;;;5066917;28;20484;-54
2023/01/09 07:37:09;;;;;;;18.63;12.23;;;8.20;1.00;;;;;;5063429;28;20200;-54
2023/01/09 07:39:34;;;;;;;15.30;11.50;;;8.20;1.00;;;;;;5058594;28;20205;-53
2023/01/09 07:42:00;;;;;;;21.87;12.50;;;8.10;1.00;;;;;;5067528;28;20185;-53
2023/01/09 07:44:26;;;;;;;19.90;12.23;;;8.10;1.00;;;;;;5062058;28;20247;-55
2023/01/09 07:46:51;;;;;;;17.43;12.30;;;8.10;1.00;;;;;;5060621;28;20188;-53
2023/01/09 07:49:17;;;;;;;15.23;11.70;;;8.20;1.00;;;;;;5055239;28;20229;-53
2023/01/09 07:51:43;;;;;;;15.67;11.80;;;8.30;1.00;;;;;;5059662;28;20244;-53
2023/01/09 07:54:11;;;;;;;17.07;12.43;;;8.30;1.00;;;;;;5060461;28;20195;-54
2023/01/09 07:56:38;;;;;;;16.27;12.50;;;8.40;1.00;;;;;;5054593;28;20454;-54
2023/01/09 07:59:04;;;;;;;18.37;12.70;;;8.60;1.00;;;;;;5059493;28;20466;-53
2023/01/09 08:01:29;;;;;;;16.80;12.40;;;8.50;1.00;;;;;;5056915;28;20460;-55
2023/01/09 08:03:55;;;;;;;18.40;13.50;;;8.50;1.00;;;;;;5060500;28;20193;-55
2023/01/09 08:06:21;;;;;;;14.57;12.63;;;8.50;1.00;;;;;;5062654;28;20696;-54
2023/01/09 08:08:46;;;;;;;13.20;11.07;;;8.50;1.00;;;;;;5055738;28;20672;-55
2023/01/09 08:11:12;;;;;;;16.77;12.00;;;8.60;1.00;;;;;;5058551;28;20694;-54
2023/01/09 08:13:37;;;;;;;17.30;11.97;;;8.60;1.00;;;;;;5056142;28;20242;-54
2023/01/09 08:16:04;;;;;;;18.53;12.50;;;8.70;1.00;;;;;;5053834;28;20632;-55
2023/01/09 08:18:29;;;;;;;21.63;13.77;;;8.70;1.00;;;;;;5054908;28;20568;-55
2023/01/09 08:20:55;;;;;;;15.23;11.20;;;8.80;1.00;;;;;;5065131;28;20614;-55
2023/01/09 08:23:21;;;;;;;15.50;11.07;;;8.80;1.00;;;;;;5067309;28;20223;-53
2023/01/09 08:25:46;;;;;;;15.07;11.67;;;8.90;1.00;;;;;;5063774;28;20181;-54
2023/01/09 08:28:12;;;;;;;14.70;11.20;;;8.90;1.00;;;;;;5068530;28;20183;-54
2023/01/09 08:30:38;;;;;;;15.70;12.27;;;9.00;1.00;;;;;;5063145;28;20217;-55
2023/01/09 08:33:04;;;;;;;15.53;11.60;;;9.00;1.00;;;;;;5058202;28;20501;-53
2023/01/09 08:35:29;;;;;;;15.50;11.80;;;9.00;1.00;;;;;;5051924;28;20201;-54
2023/01/09 08:37:55;;;;;;;14.80;11.30;;;9.10;1.00;;;;;;5068789;28;20432;-54
2023/01/09 08:40:21;;;;;;;16.67;11.80;;;9.10;1.00;;;;;;5055793;28;20218;-54
2023/01/09 08:48:15;;;;;;;15.17;10.57;;;9.20;1.00;;;;;;5051826;28;20476;-53
2023/01/09 08:50:42;;;;;;;13.27;9.97;;;9.30;1.00;;;;;;5060528;28;20506;-55
2023/01/09 08:53:08;;;;;;;13.97;9.67;;;9.20;1.00;;;;;;5058169;28;20182;-54
2023/01/09 08:55:34;;;;;;;14.93;10.43;;;9.20;1.00;;;;;;5054199;28;20436;-55
2023/01/09 08:58:00;;;;;;;14.03;10.63;;;9.40;1.00;;;;;;5059487;28;20943;-54
2023/01/09 09:00:26;;;;;;;15.53;10.93;;;9.40;1.00;;;;;;5058478;28;20212;-54
2023/01/09 09:02:52;;;;;;;13.33;9.50;;;9.40;1.00;;;;;;5061021;28;20440;-54
2023/01/09 09:05:18;;;;;;;12.17;9.70;;;9.30;1.00;;;;;;5070236;28;20636;-55
2023/01/09 09:07:47;;;;;;;11.93;10.33;;;9.40;1.00;;;;;;5066771;28;20431;-55
2023/01/09 09:10:12;;;;;;;13.63;10.10;;;9.40;1.00;;;;;;5063997;28;20196;-54
2023/01/09 09:12:38;;;;;;;13.03;9.80;;;9.40;1.00;;;;;;5051919;28;20896;-56
2023/01/09 09:15:15;;;;;;;13.40;9.97;;;9.40;1.00;;;;;;5055711;28;20205;-54
2023/01/09 09:17:42;;;;;;;13.40;10.30;;;9.40;1.00;;;;;;5053407;28;20240;-54
2023/01/09 09:20:09;;;;;;;14.13;9.70;;;9.50;1.00;;;;;;5053846;28;20526;-54
2023/01/09 09:22:35;;;;;;;13.90;9.63;;;9.50;1.00;;;;;;5052262;28;20914;-53
2023/01/09 09:25:03;;;;;;;11.70;9.50;;;9.60;1.00;;;;;;5058651;28;20490;-54
2023/01/09 09:27:29;;;;;;;9.60;8.23;;;9.60;1.00;;;;;;5075037;28;20664;-54
2023/01/09 09:29:55;;;;;;;13.40;8.10;;;9.80;1.00;;;;;;5071972;28;20418;-53
2023/01/09 09:32:21;;;;;;;10.10;7.73;;;9.90;1.00;;;;;;5062899;28;20516;-54
2023/01/09 09:34:46;;;;;;;10.17;6.67;;;9.90;1.00;;;;;;5053664;28;20280;-54
2023/01/09 09:37:12;;;;;;;7.17;6.43;;;10.10;1.00;;;;;;5065666;28;20238;-55
2023/01/09 09:39:37;;;;;;;5.07;4.57;;;10.20;1.00;;;;;;5066261;28;20626;-55
2023/01/09 09:45:32;;;;;;;2.70;2.23;;;10.70;1.00;;;;;;5070237;28;20254;-54
2023/01/09 09:48:19;;;;;;;2.90;2.60;;;10.90;1.00;;;;;;5062709;28;20442;-54
2023/01/09 09:50:57;;;;;;;2.43;2.10;;;11.00;1.00;;;;;;5060082;28;20837;-54
2023/01/09 09:54:04;;;;;;;2.73;2.10;;;11.10;1.00;;;;;;5060269;28;20419;-54
2023/01/09 09:56:36;;;;;;;2.23;2.03;;;11.10;1.00;;;;;;5047842;28;20948;-54
2023/01/09 09:59:10;;;;;;;1.97;1.73;;;11.10;1.00;;;;;;5067154;28;20420;-54
2023/01/09 10:01:47;;;;;;;2.40;2.20;;;11.10;1.00;;;;;;5058458;28;20465;-54
2023/01/09 10:04:17;;;;;;;2.10;1.90;;;11.10;1.00;;;;;;5061527;28;20846;-54
2023/01/09 10:07:10;;;;;;;2.13;1.90;;;11.20;1.00;;;;;;5065259;28;20425;-54
2023/01/09 10:09:52;;;;;;;1.80;1.70;;;11.20;1.00;;;;;;5065690;28;20442;-54
2023/01/09 10:12:28;;;;;;;2.33;2.13;;;11.30;1.00;;;;;;5061032;28;20446;-53
2023/01/09 10:14:59;;;;;;;2.13;1.93;;;11.20;1.00;;;;;;5068336;28;20944;-54
2023/01/09 10:17:31;;;;;;;2.70;2.33;;;11.20;1.00;;;;;;5060361;28;20478;-53
2023/01/09 10:20:08;;;;;;;3.70;2.20;;;11.10;1.00;;;;;;5056938;28;20456;-54
2023/01/09 10:22:40;;;;;;;2.37;2.17;;;11.00;1.00;;;;;;5069404;28;20564;-54
2023/01/09 10:25:38;;;;;;;2.30;2.10;;;11.10;1.00;;;;;;5054648;28;20416;-54
2023/01/09 10:28:36;;;;;;;4.00;2.50;;;11.10;1.00;;;;;;5059431;28;20435;-55
2023/01/09 10:31:09;;;;;;;3.27;2.63;;;11.10;1.00;;;;;;5060241;28;20423;-53
2023/01/09 10:34:03;;;;;;;3.50;2.20;;;11.10;1.00;;;;;;5065421;28;20441;-55
2023/01/09 10:36:38;;;;;;;2.13;1.90;;;10.90;1.00;;;;;;5066434;28;20523;-54
2023/01/09 10:39:09;;;;;;;2.67;1.97;;;10.80;1.00;;;;;;5063202;28;20922;-53
2023/01/09 10:41:53;;;;;;;3.73;2.30;;;10.60;1.00;;;;;;5061401;28;20503;-54
2023/01/09 10:44:32;;;;;;;2.80;2.20;;;10.70;1.00;;;;;;5044594;28;20447;-54
2023/01/09 10:47:00;;;;;;;2.90;2.60;;;10.70;1.00;;;;;;5062204;28;20953;-54
2023/01/09 10:49:26;;;;;;;2.30;1.97;;;10.50;1.00;;;;;;5069142;28;20492;-55
2023/01/09 10:52:17;;;;;;;2.17;1.90;;;10.20;1.00;;;;;;5053817;28;20441;-53
2023/01/09 10:55:01;;;;;;;1.87;1.00;;;9.90;1.00;;;;;;5059551;28;20400;-53
2023/01/09 10:57:41;;;;;;;2.03;1.30;;;9.60;1.00;;;;;;5065568;28;20424;-54
2023/01/09 11:00:13;;;;;;;2.00;1.23;;;9.60;1.00;;;;;;5056795;28;20777;-53
2023/01/09 11:02:38;;;;;;;2.10;1.37;;;9.60;1.00;;;;;;5073688;28;20393;-53
2023/01/09 11:05:04;;;;;;;2.10;1.20;;;9.60;1.00;;;;;;5066021;28;20431;-53
2023/01/09 11:07:41;;;;;;;2.60;1.40;;;9.80;1.00;;;;;;5057496;28;20209;-53
2023/01/09 11:10:11;;;;;;;1.97;1.23;;;9.90;1.00;;;;;;5063159;28;20531;-55
2023/01/09 11:12:38;;;;;;;2.20;1.37;;;10.10;1.00;;;;;;5066999;28;20471;-54
2023/01/09 11:15:15;;;;;;;2.57;1.77;;;10.20;1.00;;;;;;5060626;28;20439;-54
2023/01/09 11:17:49;;;;;;;1.30;1.20;;;10.30;1.00;;;;;;5063692;28;20439;-54
2023/01/09 11:20:24;;;;;;;1.77;1.10;;;10.30;1.00;;;;;;5060932;28;20460;-54
2023/01/09 11:22:55;;;;;;;1.40;1.13;;;10.40;1.00;;;;;;5067798;28;20918;-54
2023/01/09 11:25:26;;;;;;;1.63;0.90;;;10.50;1.00;;;;;;5067272;28;20442;-54
2023/01/09 11:28:01;;;;;;;0.90;0.90;;;10.50;1.00;;;;;;5065077;28;20443;-54
2023/01/09 11:30:32;;;;;;;1.53;1.20;;;10.50;1.00;;;;;;5066990;28;20474;-52
2023/01/09 11:32:59;;;;;;;1.57;0.77;;;10.40;1.00;;;;;;5059210;28;20423;-54
2023/01/09 11:35:30;;;;;;;2.17;1.03;;;10.40;1.00;;;;;;5058570;28;20444;-55
2023/01/09 11:38:04;;;;;;;2.67;1.07;;;10.30;1.00;;;;;;5060752;28;20479;-52
2023/01/09 11:40:36;;;;;;;1.17;1.07;;;10.30;1.00;;;;;;5061902;28;20437;-54
2023/01/09 11:43:04;;;;;;;0.83;0.80;;;10.40;1.00;;;;;;5060200;28;20428;-53
2023/01/09 11:45:32;;;;;;;2.70;2.17;;;10.30;1.00;;;;;;5070446;28;20542;-52
2023/01/09 11:48:00;;;;;;;1.47;1.03;;;10.30;1.00;;;;;;5057570;28;20980;-54
2023/01/09 11:50:28;;;;;;;1.20;1.00;;;10.50;1.00;;;;;;5065546;28;20484;-53
2023/01/09 11:53:14;;;;;;;0.90;0.80;;;10.40;1.00;;;;;;5059617;28;20806;-54
2023/01/09 11:59:21;;;;;;;1.10;0.50;;;10.50;1.00;;;;;;5022843;28;20849;-56
2023/01/09 12:01:56;;;;;;;1.70;0.70;;;10.30;1.00;;;;;;5049232;28;20551;-56
2023/01/09 12:04:31;;;;;;;0.50;0.50;;;10.40;1.00;;;;;;5049762;28;20794;-55
2023/01/09 12:07:38;;;;;;;3.73;0.80;;;10.40;1.00;;;;;;5050661;28;20573;-55
2023/01/09 12:10:22;;;;;;;1.43;0.87;;;10.50;1.00;;;;;;5017151;28;20455;-54
2023/01/09 12:12:56;;;;;;;0.90;0.77;;;10.70;1.00;;;;;;5049223;28;20418;-55
2023/01/09 12:15:47;;;;;;;1.47;0.60;;;10.70;1.00;;;;;;5049123;28;20984;-55
2023/01/09 12:18:28;;;;;;;0.60;0.60;;;10.80;1.00;;;;;;5049683;28;20438;-55
2023/01/09 12:21:03;;;;;;;1.27;0.73;;;10.80;1.00;;;;;;5047976;28;20473;-55
2023/01/09 12:23:42;;;;;;;1.03;0.77;;;10.60;1.00;;;;;;5049288;28;20866;-55
2023/01/09 12:26:23;;;;;;;2.23;0.80;;;10.70;1.00;;;;;;5048253;28;20432;-54
2023/01/09 12:29:10;;;;;;;1.37;0.83;;;10.70;1.00;;;;;;5048918;28;20437;-53
2023/01/09 12:31:47;;;;;;;1.80;0.70;;;10.80;1.00;;;;;;5049183;28;20931;-55
2023/01/09 12:34:40;;;;;;;0.83;0.60;;;11.00;1.00;;;;;;5049130;28;20416;-54
2023/01/09 12:37:36;;;;;;;1.80;0.80;;;11.00;1.00;;;;;;5049082;28;20441;-55
2023/01/09 12:40:14;;;;;;;0.60;0.50;;;10.90;1.00;;;;;;5057593;28;22271;-56
2023/01/09 12:42:49;;;;;;;0.50;0.50;;;10.80;1.00;;;;;;5051752;28;20447;-66
2023/01/09 12:45:36;;;;;;;2.40;0.80;;;10.60;1.00;;;;;;5068730;28;20439;-55
2023/01/09 12:48:20;;;;;;;0.90;0.60;;;10.50;1.00;;;;;;5068725;28;20944;-56
2023/01/09 12:51:16;;;;;;;3.70;0.87;;;10.50;1.00;;;;;;5064169;28;20440;-55
2023/01/09 12:53:47;;;;;;;1.80;0.70;;;10.50;1.00;;;;;;5047727;28;20436;-56
2023/01/09 12:56:19;;;;;;;2.10;0.80;;;10.60;1.00;;;;;;5046760;28;20438;-57
2023/01/09 12:58:53;;;;;;;0.63;0.60;;;10.50;1.00;;;;;;5047853;28;20880;-56
2023/01/09 13:01:32;;;;;;;0.70;0.70;;;10.40;1.00;;;;;;5047939;28;20452;-55
2023/01/09 13:04:16;;;;;;;3.13;0.80;;;10.40;1.00;;;;;;5048770;28;20528;-58
2023/01/09 13:06:48;;;;;;;1.93;0.90;;;10.40;1.00;;;;;;5048147;28;20494;-57
2023/01/09 13:09:43;;;;;;;1.90;0.87;;;10.40;1.00;;;;;;5048501;28;20832;-55
2023/01/09 13:12:20;;;;;;;2.30;0.93;;;10.70;1.00;;;;;;5048494;28;20451;-55
2023/01/09 13:15:05;;;;;;;0.80;0.80;;;10.90;1.00;;;;;;5046141;28;20448;-55
2023/01/09 13:17:45;;;;;;;1.00;0.70;;;10.90;1.00;;;;;;5050969;28;20435;-54
2023/01/09 13:20:20;;;;;;;0.87;0.83;;;10.70;1.00;;;;;;5048699;28;20483;-54
2023/01/09 13:22:49;;;;;;;1.57;0.57;;;10.70;1.00;;;;;;5047941;28;21181;-55
2023/01/09 13:25:27;;;;;;;0.87;0.60;;;10.80;1.00;;;;;;5048302;28;20495;-55